CheckWX is a tool to help pilots better visualize weather data.  It is not intended as a substitute for an official pre-flight weather briefing.

04:18:41 UTC

KRNT METAR
Renton Municipal Airport
Renton, Washington, USA
Current

26 mins ago

KRNT 270353Z 24003KT 10SM CLR 18/11 A2988 RMK AO2 SLP123 T01780111
Observed
Jun-27 @ 03:53 UTC
Wind
  • 240° at 3 KTS
Visibility
10 SM
Flight Rules
VFR
Cloud Levels
  • Clear skies
Temperature
18°C / 64°F
Dewpoint
11°C / 52°F
Humidity
64%
Altimeter
29.88" Hg
Pressure
1011.82 hPa
Previous

1 hour ago

KRNT 270253Z 32006KT 10SM CLR 18/11 A2987 RMK AO2 SLP119 T01780111 50000
Observed
Jun-27 @ 02:53 UTC
Wind
  • 320° at 6 KTS
Visibility
10 SM
Flight Rules
VFR
Cloud Levels
  • Clear skies
Temperature
18°C / 64°F
Dewpoint
11°C / 52°F
Humidity
64%
Altimeter
29.87" Hg
Pressure
1011.52 hPa
Previous

2 hours ago

KRNT 270153Z 28006KT 10SM FEW075 OVC110 18/12 A2987 RMK AO2 SLP119 T01830122
Observed
Jun-27 @ 01:53 UTC
Wind
  • 280° at 6 KTS
Visibility
10 SM
Flight Rules
VFR
Cloud Levels
  • Few at 7,500' AGL
  • Overcast at 11,000' AGL
Temperature
18°C / 64°F
Dewpoint
12°C / 54°F
Humidity
68%
Altimeter
29.87" Hg
Pressure
1011.52 hPa